00:39
Airports
History
Links
Donate
Help keep this website running!
PayPal
Bitcoin
Information on this page is community maintained and may be outdated or inaccurate and is intended for reference only or PC simulator navigating.
Always use approved charts for navigating.
ENHF
HammerfestEdited 30-Jun-2011
Hammerfest (ENHF)
Hammerfest, Finnmark, Norway (9600)
(C)
Lat/Lng:70° 40' 46.49" N / 23° 40' 5.58" E
70.679581 / 23.668217
Elevation:266'ft 81mMSL
ID / ICAO:ENHF
Runways:1
Longest:(05-23) 885.1m 2,904ft Asphalt
Controlled:Yes
Beacon:White-Green
Distance To
Airport ID:
Nearby VORs <50NM
Nearby NDBs
METARUpdated 07-24-17 23:50 GMT
Altimeter: 30.09
Visibility: 6.2 statute miles
Wind: 2 knots (VRB°)
Temp: 11°c 52°f
Humidity: 81.7%

METAR: ENHF 242350Z VRB02KT 9999 FEW/// SCT210 11/08 Q1019 RMK WIND 1254FT 18004KT

(Powered by phpweather)
Runway 05 / 23
Dimensions:885.1 x 29.9m 2904' x 98'ft
Surface:Asphalt
Edge Lights:Medium intensity
Runway 05 [A]Runway 23 [B]
Heading:056°TH 236°TH
Lat:
Lng:
70° 40' 38.7"N
23° 39' 29.34"E
70° 40' 54.28"N
23° 40' 41.83"E
ALS:RAILRAIL
User Notes and Comments
Google Map
Nearby Airports
(U) HASVIK 37.5 NM
ENHK WSW 249°
(C) ALTA 49.0 NM
ENAT (WX) S 188°
(C) BANAK 51.9 NM
ENNA (WX) SE 144°
(C) Honningsvaag Valan 57.2 NM
ENHV (WX) ENE 66°
(C) Sorkjosen 88.3 NM
ENSR (WX) SW 225°
(C) Mehamn 97.3 NM
ENMH ENE 75°
(C) Kautokeino 114.2 NM
ENKA S 187°
VFR Chart
Flight Planning at SkyVector.com